Time;durP1;ratioP1;P1;durP2;ratioP2;P2;SDS_P1;SDS_P2;PMS_P1;PMS_P2;Temp;Humidity;BMP_temperature;BMP_pressure;BME280_temperature;BME280_humidity;BME280_pressure;Samples;Min_cycle;Max_cycle;Signal;HPM_P1;HPM_P2
2023/04/07 00:00:26;;;;;;;12.70;9.60;;;5.00;71.90;;;;;;5053601;28;20575;-62
2023/04/07 00:02:53;;;;;;;12.52;10.07;;;5.00;72.10;;;;;;5053294;28;20232;-63
2023/04/07 00:05:20;;;;;;;18.05;11.52;;;5.00;72.50;;;;;;5053124;28;20208;-61
2023/04/07 00:07:48;;;;;;;12.23;9.80;;;4.90;72.50;;;;;;5052872;28;20574;-63
2023/04/07 00:10:15;;;;;;;12.10;9.43;;;4.90;72.80;;;;;;5053238;28;20209;-62
2023/04/07 00:12:42;;;;;;;16.35;10.73;;;4.90;73.00;;;;;;5053147;28;20221;-62
2023/04/07 00:15:09;;;;;;;13.60;10.20;;;4.90;73.30;;;;;;5053199;28;20198;-62
2023/04/07 00:17:36;;;;;;;13.23;9.75;;;4.80;73.30;;;;;;5053103;28;20256;-63
2023/04/07 00:20:04;;;;;;;13.30;10.32;;;4.80;73.60;;;;;;5052781;28;20663;-61
2023/04/07 00:22:31;;;;;;;13.45;9.32;;;4.80;73.80;;;;;;5052597;28;20312;-63
2023/04/07 00:24:59;;;;;;;11.52;8.82;;;4.80;74.00;;;;;;5052766;28;20580;-64
2023/04/07 00:27:26;;;;;;;14.02;9.80;;;4.70;74.10;;;;;;5055505;28;20197;-63
2023/04/07 00:29:54;;;;;;;13.13;10.07;;;4.70;74.20;;;;;;5057317;28;20256;-61
2023/04/07 00:32:21;;;;;;;12.90;10.07;;;4.70;74.30;;;;;;5056946;28;20226;-62
2023/04/07 00:34:47;;;;;;;13.45;9.50;;;4.70;74.40;;;;;;5057008;28;20251;-60
2023/04/07 00:37:14;;;;;;;12.90;9.55;;;4.60;74.50;;;;;;5056991;28;20221;-62
2023/04/07 00:39:41;;;;;;;11.68;9.13;;;4.60;74.80;;;;;;5057091;28;20284;-62
2023/04/07 00:42:09;;;;;;;11.90;9.57;;;4.60;75.10;;;;;;5057055;28;20243;-62
2023/04/07 00:44:36;;;;;;;10.70;9.20;;;4.50;75.10;;;;;;5056971;28;20581;-63
2023/04/07 00:47:03;;;;;;;16.70;9.10;;;4.50;75.70;;;;;;5056806;28;20197;-62
2023/04/07 00:49:30;;;;;;;13.90;9.60;;;4.50;75.90;;;;;;5056674;28;20598;-63
2023/04/07 00:51:58;;;;;;;10.75;9.10;;;4.40;76.00;;;;;;5058828;28;20201;-62
2023/04/07 00:54:25;;;;;;;10.35;9.25;;;4.40;76.50;;;;;;5058117;28;20205;-62
2023/04/07 00:56:52;;;;;;;13.25;9.70;;;4.40;76.90;;;;;;5056218;28;20560;-62
2023/04/07 00:59:21;;;;;;;15.02;9.45;;;4.30;77.20;;;;;;5056058;28;20205;-62
2023/04/07 01:01:55;;;;;;;12.25;9.73;;;4.30;78.20;;;;;;5056318;28;20205;-63
2023/04/07 01:04:28;;;;;;;11.27;9.40;;;4.20;77.90;;;;;;5056162;28;20589;-63
2023/04/07 01:07:01;;;;;;;11.85;10.10;;;4.20;78.50;;;;;;5057035;28;20190;-63
2023/04/07 01:09:35;;;;;;;15.73;10.32;;;4.20;78.80;;;;;;5056514;28;20262;-62
2023/04/07 01:12:07;;;;;;;10.57;9.52;;;4.10;79.00;;;;;;5056186;28;20226;-62
2023/04/07 01:14:40;;;;;;;12.57;9.50;;;4.10;79.10;;;;;;5055859;28;20182;-62
2023/04/07 01:17:10;;;;;;;13.45;9.30;;;4.10;79.40;;;;;;5056176;28;20577;-62
2023/04/07 01:19:40;;;;;;;11.43;9.82;;;4.10;79.60;;;;;;5056300;28;20201;-63
2023/04/07 01:22:13;;;;;;;13.32;9.60;;;4.00;79.60;;;;;;5079395;22;20232;-71
2023/04/07 01:25:06;;;;;;;12.68;10.13;;;4.00;79.70;;;;;;5037767;28;20635;-70
2023/04/07 01:27:38;;;;;;;12.05;9.68;;;4.00;80.00;;;;;;5036878;28;20187;-71
2023/04/07 01:30:12;;;;;;;16.52;10.00;;;3.90;80.30;;;;;;5036454;28;20754;-70
2023/04/07 01:32:40;;;;;;;13.55;10.77;;;3.90;80.60;;;;;;5036828;28;20226;-70
2023/04/07 01:35:12;;;;;;;12.57;10.05;;;3.90;80.90;;;;;;5037833;28;20285;-71
2023/04/07 01:37:39;;;;;;;10.57;9.05;;;3.90;80.80;;;;;;5035980;28;20210;-70
2023/04/07 01:40:08;;;;;;;13.45;9.60;;;3.90;81.10;;;;;;5036459;28;20202;-70
2023/04/07 01:42:38;;;;;;;13.48;10.60;;;3.90;81.20;;;;;;5036457;28;20704;-70
2023/04/07 01:45:09;;;;;;;13.18;10.38;;;3.80;81.40;;;;;;5035714;28;20201;-71
2023/04/07 01:47:37;;;;;;;13.60;10.10;;;3.80;81.50;;;;;;5037081;28;20183;-70
2023/04/07 01:50:05;;;;;;;12.23;10.60;;;3.80;81.60;;;;;;5036106;28;20575;-70
2023/04/07 01:52:34;;;;;;;11.60;9.82;;;3.80;81.80;;;;;;5037507;28;20227;-71
2023/04/07 01:55:01;;;;;;;13.13;10.40;;;3.80;82.20;;;;;;5036444;28;20216;-71
2023/04/07 01:57:28;;;;;;;12.90;11.10;;;3.70;82.20;;;;;;5039592;28;20218;-70
2023/04/07 01:59:55;;;;;;;13.63;10.88;;;3.70;82.40;;;;;;5045924;28;20262;-71
2023/04/07 02:02:23;;;;;;;13.20;10.68;;;3.70;82.50;;;;;;5045222;28;20230;-72
2023/04/07 02:04:56;;;;;;;13.55;9.95;;;3.70;82.70;;;;;;5043199;28;20207;-72
2023/04/07 02:07:29;;;;;;;13.02;9.70;;;3.70;82.90;;;;;;5037066;28;20187;-71
2023/04/07 02:10:00;;;;;;;11.48;10.35;;;3.60;82.90;;;;;;5036635;28;20187;-70
2023/04/07 02:12:28;;;;;;;19.05;11.23;;;3.60;83.30;;;;;;5035947;28;20222;-70
2023/04/07 02:14:57;;;;;;;15.27;10.90;;;3.50;84.00;;;;;;5035493;28;20206;-69
2023/04/07 02:17:28;;;;;;;13.13;10.63;;;3.50;84.30;;;;;;5035608;28;20310;-70
2023/04/07 02:19:57;;;;;;;14.25;10.65;;;3.50;84.60;;;;;;5035687;28;20187;-71
2023/04/07 02:22:23;;;;;;;12.52;11.20;;;3.50;85.00;;;;;;5035096;28;20605;-70
2023/04/07 02:24:50;;;;;;;14.40;10.90;;;3.50;85.20;;;;;;5034900;28;20644;-69
2023/04/07 02:27:18;;;;;;;13.15;11.70;;;3.50;85.30;;;;;;5034982;28;20237;-71
2023/04/07 02:29:45;;;;;;;13.00;11.23;;;3.40;85.30;;;;;;5035125;28;20256;-70
2023/04/07 02:32:12;;;;;;;11.38;10.27;;;3.40;85.60;;;;;;5035146;28;20199;-70
2023/04/07 02:34:40;;;;;;;14.07;10.68;;;3.40;85.90;;;;;;5035069;28;20676;-71
2023/04/07 02:37:07;;;;;;;14.38;11.15;;;3.30;86.40;;;;;;5036206;28;20315;-70
2023/04/07 02:39:34;;;;;;;13.52;10.32;;;3.30;86.60;;;;;;5035921;28;20203;-70
2023/04/07 02:42:01;;;;;;;13.40;11.75;;;3.30;87.20;;;;;;5035575;28;20212;-69
2023/04/07 02:44:27;;;;;;;13.05;10.45;;;3.30;87.50;;;;;;5035246;28;20694;-71
2023/04/07 02:46:55;;;;;;;13.52;11.50;;;3.20;87.80;;;;;;5034841;28;20229;-70
2023/04/07 02:49:22;;;;;;;14.38;10.93;;;3.20;87.80;;;;;;5034532;28;20202;-70
2023/04/07 02:51:50;;;;;;;11.85;10.57;;;3.10;88.10;;;;;;5037461;28;20202;-70
2023/04/07 02:54:17;;;;;;;12.23;10.93;;;3.10;88.80;;;;;;5035936;28;20309;-70
2023/04/07 02:56:43;;;;;;;12.85;10.48;;;3.10;89.10;;;;;;5034457;28;20696;-70
2023/04/07 02:59:10;;;;;;;14.38;11.20;;;3.10;89.70;;;;;;5034415;28;20212;-70
2023/04/07 03:01:38;;;;;;;12.68;10.95;;;3.10;90.00;;;;;;5034590;28;20603;-71
2023/04/07 03:04:04;;;;;;;15.02;11.00;;;3.00;90.00;;;;;;5033937;28;20704;-71
2023/04/07 03:06:32;;;;;;;12.18;10.55;;;3.00;90.10;;;;;;5034227;28;20264;-71
2023/04/07 03:09:00;;;;;;;12.07;10.73;;;3.00;90.30;;;;;;5034337;28;20243;-70
2023/04/07 03:11:27;;;;;;;12.13;10.93;;;3.00;90.30;;;;;;5034310;28;20206;-70
2023/04/07 03:13:53;;;;;;;14.25;11.45;;;2.90;90.40;;;;;;5033807;28;20222;-71
2023/04/07 03:16:20;;;;;;;12.43;10.93;;;3.00;90.60;;;;;;5033871;28;20203;-69
2023/04/07 03:18:47;;;;;;;12.77;11.25;;;2.90;90.70;;;;;;5033946;28;20625;-71
2023/04/07 03:21:14;;;;;;;14.50;10.65;;;2.90;90.80;;;;;;5033487;28;20579;-70
2023/04/07 03:23:40;;;;;;;13.40;11.90;;;2.90;91.00;;;;;;5033449;28;20612;-70
2023/04/07 03:26:09;;;;;;;13.07;11.60;;;2.90;91.00;;;;;;5033892;28;20268;-70
2023/04/07 03:28:36;;;;;;;17.58;13.07;;;2.90;91.10;;;;;;5033826;28;20194;-70
2023/04/07 03:31:02;;;;;;;16.17;11.60;;;2.90;91.10;;;;;;5033880;28;20204;-70
2023/04/07 03:33:29;;;;;;;12.30;10.20;;;2.90;91.20;;;;;;5033519;28;20586;-70
2023/04/07 03:35:56;;;;;;;11.85;10.63;;;2.90;91.20;;;;;;5033185;28;20202;-70
2023/04/07 03:38:23;;;;;;;13.55;11.93;;;2.80;91.40;;;;;;5033158;28;20261;-69
2023/04/07 03:40:50;;;;;;;14.95;12.15;;;2.80;91.70;;;;;;5033427;28;20210;-70
2023/04/07 03:43:18;;;;;;;18.67;11.18;;;2.80;91.80;;;;;;5033542;28;20308;-69
2023/04/07 03:45:45;;;;;;;15.32;12.48;;;2.90;91.90;;;;;;5033442;28;20246;-70
2023/04/07 03:48:12;;;;;;;13.50;11.40;;;2.90;92.20;;;;;;5033466;28;20208;-70
2023/04/07 03:50:40;;;;;;;19.73;12.13;;;2.90;92.10;;;;;;5033236;28;20688;-71
2023/04/07 03:53:07;;;;;;;12.52;11.23;;;2.90;92.10;;;;;;5033356;28;20712;-70
2023/04/07 03:55:34;;;;;;;15.73;11.13;;;2.80;92.10;;;;;;5033388;28;20580;-70
2023/04/07 03:58:01;;;;;;;13.85;11.60;;;2.90;92.10;;;;;;5033176;28;20891;-71
2023/04/07 04:00:31;;;;;;;13.77;12.05;;;2.80;92.20;;;;;;5033863;28;20592;-69
2023/04/07 04:02:58;;;;;;;14.90;12.68;;;2.90;92.20;;;;;;5033958;28;20226;-69
2023/04/07 04:05:25;;;;;;;13.80;12.18;;;2.90;92.20;;;;;;5033088;28;20206;-69
2023/04/07 04:07:52;;;;;;;14.48;11.90;;;2.90;92.30;;;;;;5033856;28;20552;-69
2023/04/07 04:11:32;;;;;;;20.08;13.48;;;2.90;92.20;;;;;;5152978;27;20954;-68
2023/04/07 04:13:59;;;;;;;17.27;14.70;;;2.90;92.10;;;;;;5152342;27;20309;-68
2023/04/07 04:16:26;;;;;;;20.65;13.18;;;2.90;92.20;;;;;;5152776;27;20208;-70
2023/04/07 04:18:52;;;;;;;18.45;13.25;;;2.80;92.10;;;;;;5152391;27;20204;-69
2023/04/07 04:21:19;;;;;;;16.00;14.30;;;2.80;92.30;;;;;;5152402;27;20552;-70
2023/04/07 04:23:46;;;;;;;17.10;13.68;;;2.80;92.50;;;;;;5153501;27;20309;-70
2023/04/07 04:26:13;;;;;;;19.08;14.20;;;2.80;92.70;;;;;;5154433;27;20574;-71
2023/04/07 04:28:41;;;;;;;17.50;14.30;;;2.80;92.60;;;;;;5154683;27;20201;-70
2023/04/07 04:31:08;;;;;;;18.58;14.48;;;2.80;92.70;;;;;;5153472;27;20221;-70
2023/04/07 04:33:35;;;;;;;19.98;13.98;;;2.80;92.80;;;;;;5155116;27;20214;-70
2023/04/07 04:36:01;;;;;;;16.73;13.45;;;2.80;92.90;;;;;;5156274;27;20256;-72
2023/04/07 04:38:28;;;;;;;15.90;13.40;;;2.80;92.90;;;;;;5154548;27;20206;-71
2023/04/07 04:40:55;;;;;;;18.67;13.73;;;2.80;92.90;;;;;;5153717;27;20195;-71
2023/04/07 04:43:22;;;;;;;18.20;13.48;;;2.80;92.80;;;;;;5153383;27;20226;-71
2023/04/07 04:45:50;;;;;;;16.95;14.15;;;2.80;93.00;;;;;;5151864;27;20198;-71
2023/04/07 04:48:17;;;;;;;18.35;13.90;;;2.80;92.90;;;;;;5152222;27;20224;-71
2023/04/07 04:50:44;;;;;;;16.33;13.98;;;2.80;93.00;;;;;;5153047;27;20246;-71
2023/04/07 04:53:11;;;;;;;18.90;15.40;;;2.80;93.30;;;;;;5152483;27;20218;-69
2023/04/07 04:55:39;;;;;;;16.42;14.48;;;2.80;93.10;;;;;;5153256;27;20202;-71
2023/04/07 04:58:06;;;;;;;17.95;15.02;;;2.80;93.20;;;;;;5151674;27;20187;-70
2023/04/07 05:00:33;;;;;;;14.88;13.25;;;2.80;93.30;;;;;;5151587;27;20296;-70
2023/04/07 05:03:02;;;;;;;18.30;14.15;;;2.80;93.30;;;;;;5151529;27;20215;-71
2023/04/07 05:05:29;;;;;;;19.60;15.23;;;2.80;93.30;;;;;;5151846;27;20302;-71
2023/04/07 05:07:56;;;;;;;16.75;13.65;;;2.80;93.30;;;;;;5152319;27;20657;-70
2023/04/07 05:10:22;;;;;;;17.70;14.50;;;2.80;93.40;;;;;;5151727;27;20223;-70
2023/04/07 05:12:49;;;;;;;18.88;14.18;;;2.90;93.40;;;;;;5152759;27;20645;-70
2023/04/07 05:15:16;;;;;;;19.63;14.55;;;3.00;93.20;;;;;;5152382;27;20202;-70
2023/04/07 05:17:43;;;;;;;21.05;14.75;;;3.00;93.00;;;;;;5152379;27;20293;-71
2023/04/07 05:20:12;;;;;;;20.50;14.38;;;3.00;93.00;;;;;;5151889;27;20201;-70
2023/04/07 05:22:39;;;;;;;19.33;14.52;;;3.10;93.10;;;;;;5140685;27;20747;-71
2023/04/07 05:25:07;;;;;;;16.00;13.48;;;3.20;93.00;;;;;;5138670;27;20706;-71
2023/04/07 05:27:34;;;;;;;16.90;13.13;;;3.20;92.80;;;;;;5139382;27;20199;-69
2023/04/07 05:30:00;;;;;;;15.07;13.00;;;3.20;92.50;;;;;;5138355;27;20215;-70
2023/04/07 05:32:28;;;;;;;16.10;13.20;;;3.20;92.30;;;;;;5138382;27;20680;-72
2023/04/07 05:34:55;;;;;;;17.48;15.02;;;3.20;92.20;;;;;;5138645;27;20225;-71
2023/04/07 05:37:23;;;;;;;15.57;13.32;;;3.30;92.00;;;;;;5138340;27;20309;-71
2023/04/07 05:39:50;;;;;;;17.45;14.50;;;3.30;91.80;;;;;;5140459;27;20199;-70
2023/04/07 05:42:17;;;;;;;15.80;13.10;;;3.30;91.50;;;;;;5142316;27;20287;-70
2023/04/07 05:44:44;;;;;;;16.95;13.52;;;3.40;91.30;;;;;;5143796;27;20294;-70
2023/04/07 05:47:11;;;;;;;19.08;14.32;;;3.40;91.10;;;;;;5144033;27;20203;-71
2023/04/07 05:49:44;;;;;;;18.73;14.07;;;3.50;90.80;;;;;;5143730;27;20254;-70
2023/04/07 05:52:11;;;;;;;17.25;14.18;;;3.60;90.60;;;;;;5141898;27;20218;-70
2023/04/07 05:54:40;;;;;;;15.55;12.23;;;3.60;90.20;;;;;;5141089;27;20203;-71
2023/04/07 05:57:07;;;;;;;14.85;12.90;;;3.60;89.90;;;;;;5140663;27;20298;-70
2023/04/07 05:59:34;;;;;;;14.27;11.77;;;3.70;89.60;;;;;;5138768;27;20199;-71
2023/04/07 06:02:01;;;;;;;15.23;12.95;;;3.70;88.90;;;;;;5139636;27;20702;-71
2023/04/07 06:04:28;;;;;;;15.80;12.95;;;3.80;88.40;;;;;;5143246;27;20198;-70
2023/04/07 06:06:55;;;;;;;16.77;13.25;;;3.90;87.60;;;;;;5144520;27;20230;-70
2023/04/07 06:09:21;;;;;;;17.17;14.30;;;3.90;87.00;;;;;;5144711;27;20206;-72
2023/04/07 06:11:50;;;;;;;15.73;13.32;;;4.00;86.20;;;;;;5143741;27;20203;-71
2023/04/07 06:14:18;;;;;;;15.88;14.20;;;4.10;85.50;;;;;;5140541;27;20230;-71
2023/04/07 06:16:44;;;;;;;16.70;13.82;;;4.10;84.60;;;;;;5139133;27;20206;-71
2023/04/07 06:19:11;;;;;;;15.00;12.65;;;4.20;84.00;;;;;;5137772;27;20299;-71
2023/04/07 06:21:39;;;;;;;15.27;12.10;;;4.30;83.10;;;;;;5137191;27;20644;-73
2023/04/07 06:24:06;;;;;;;16.08;14.13;;;4.40;82.80;;;;;;5137581;27;20219;-71
2023/04/07 06:26:33;;;;;;;14.57;12.77;;;4.40;81.50;;;;;;5137779;27;20418;-71
2023/04/07 06:29:01;;;;;;;14.00;12.57;;;4.60;80.80;;;;;;5139251;27;20207;-72
2023/04/07 06:31:28;;;;;;;15.95;13.10;;;4.60;80.00;;;;;;5137840;27;20211;-71
2023/04/07 06:33:55;;;;;;;16.50;12.93;;;4.70;79.20;;;;;;5137284;27;20310;-70
2023/04/07 06:36:23;;;;;;;14.60;12.32;;;4.80;78.30;;;;;;5137688;27;20205;-71
2023/04/07 06:38:50;;;;;;;17.45;13.30;;;4.90;77.30;;;;;;5137316;27;20199;-70
2023/04/07 06:41:17;;;;;;;14.15;12.18;;;4.90;76.30;;;;;;5137633;27;20191;-70
2023/04/07 06:43:44;;;;;;;14.20;11.75;;;4.90;75.30;;;;;;5136401;27;20223;-70
2023/04/07 06:46:12;;;;;;;14.88;12.75;;;5.00;75.20;;;;;;5136424;27;20203;-69
2023/04/07 06:48:39;;;;;;;14.65;13.15;;;5.00;74.60;;;;;;5136813;27;20199;-70
2023/04/07 06:51:06;;;;;;;17.05;13.38;;;5.00;74.30;;;;;;5139042;27;20301;-69
2023/04/07 06:53:32;;;;;;;15.30;12.88;;;5.00;74.10;;;;;;5145529;27;20309;-71
2023/04/07 06:56:07;;;;;;;16.48;12.95;;;5.00;73.80;;;;;;5139058;27;20203;-71
2023/04/07 06:58:34;;;;;;;14.98;12.18;;;5.00;73.70;;;;;;5136954;27;20229;-70
2023/04/07 07:01:01;;;;;;;14.02;12.65;;;5.10;73.50;;;;;;5137129;27;20733;-70
2023/04/07 07:03:30;;;;;;;14.52;12.10;;;5.10;73.00;;;;;;5135963;27;20222;-70
2023/04/07 07:05:57;;;;;;;14.05;12.57;;;5.20;72.40;;;;;;5136497;27;20195;-70
2023/04/07 07:08:24;;;;;;;14.25;12.73;;;5.40;71.80;;;;;;5135929;27;20203;-70
2023/04/07 07:10:51;;;;;;;14.68;13.05;;;5.50;71.10;;;;;;5135078;27;20570;-69
2023/04/07 07:13:19;;;;;;;16.52;11.60;;;5.60;70.40;;;;;;5136842;27;20327;-70
2023/04/07 07:15:46;;;;;;;13.40;12.10;;;5.70;69.70;;;;;;5138794;27;20199;-69
2023/04/07 07:18:12;;;;;;;14.15;12.65;;;5.80;69.20;;;;;;5138323;27;20199;-70
2023/04/07 07:20:41;;;;;;;14.07;11.88;;;5.90;68.70;;;;;;5137607;27;20625;-71
2023/04/07 07:23:08;;;;;;;15.82;12.45;;;6.00;68.00;;;;;;5146889;22;20245;-62
2023/04/07 07:25:35;;;;;;;16.55;12.70;;;6.10;67.40;;;;;;5053431;28;20639;-62
2023/04/07 07:28:02;;;;;;;14.93;12.30;;;6.30;66.90;;;;;;5053639;28;20596;-63
2023/04/07 07:30:29;;;;;;;15.10;12.63;;;6.50;66.30;;;;;;5053048;28;20604;-63
2023/04/07 07:32:56;;;;;;;15.90;12.07;;;6.60;65.30;;;;;;5053288;28;20224;-60
2023/04/07 07:35:24;;;;;;;15.48;12.45;;;6.80;64.70;;;;;;5053481;28;20202;-62
2023/04/07 07:37:52;;;;;;;13.52;11.75;;;6.90;64.20;;;;;;5055904;28;20201;-62
2023/04/07 07:40:19;;;;;;;12.68;11.10;;;7.10;63.30;;;;;;5053356;28;20293;-62
2023/04/07 07:42:46;;;;;;;13.10;10.70;;;7.30;62.00;;;;;;5053198;28;20223;-60
2023/04/07 07:45:13;;;;;;;13.23;11.52;;;7.50;60.70;;;;;;5053034;28;20208;-61
2023/04/07 07:47:40;;;;;;;14.20;12.68;;;7.60;59.80;;;;;;5053242;28;20292;-62
2023/04/07 07:50:07;;;;;;;12.45;10.98;;;7.70;59.20;;;;;;5052970;28;20292;-61
2023/04/07 07:52:34;;;;;;;13.55;11.75;;;7.70;58.60;;;;;;5053044;28;20241;-61
2023/04/07 07:55:02;;;;;;;14.00;11.77;;;7.80;58.30;;;;;;5052880;28;20209;-61
2023/04/07 07:57:30;;;;;;;14.05;12.40;;;8.00;58.10;;;;;;5053157;28;20224;-62
2023/04/07 07:59:57;;;;;;;13.23;11.90;;;8.30;57.70;;;;;;5052855;28;20204;-61
2023/04/07 08:02:29;;;;;;;12.00;10.75;;;8.40;56.70;;;;;;5053004;28;20239;-61
2023/04/07 08:04:56;;;;;;;14.15;12.00;;;8.60;56.00;;;;;;5052560;28;20695;-61
2023/04/07 08:07:23;;;;;;;11.35;10.15;;;8.70;55.20;;;;;;5053042;28;20561;-61
2023/04/07 08:09:50;;;;;;;11.82;10.63;;;8.70;54.70;;;;;;5052695;28;20579;-61
2023/04/07 08:12:18;;;;;;;11.90;10.73;;;8.90;54.40;;;;;;5052847;28;20213;-61
2023/04/07 08:14:45;;;;;;;13.40;12.00;;;9.00;53.80;;;;;;5052877;28;20206;-61
2023/04/07 08:17:12;;;;;;;14.30;10.65;;;9.10;53.30;;;;;;5052675;28;20202;-62
2023/04/07 08:19:39;;;;;;;11.68;10.20;;;9.20;53.40;;;;;;5052758;28;20205;-61
2023/04/07 08:22:05;;;;;;;12.55;11.25;;;9.30;52.60;;;;;;5052918;28;20201;-60
2023/04/07 08:24:32;;;;;;;11.18;10.07;;;9.40;52.50;;;;;;5052324;28;20715;-61
2023/04/07 08:27:00;;;;;;;14.45;10.45;;;9.60;52.00;;;;;;5052670;28;20212;-62
2023/04/07 08:29:28;;;;;;;11.80;10.52;;;9.70;51.30;;;;;;5052467;28;20202;-62
2023/04/07 08:31:55;;;;;;;11.87;10.43;;;9.80;51.00;;;;;;5052845;28;20237;-61
2023/04/07 08:34:21;;;;;;;11.30;9.67;;;9.90;50.80;;;;;;5052576;28;20476;-62
2023/04/07 08:36:49;;;;;;;13.70;10.60;;;10.00;49.10;;;;;;5052380;28;20543;-61
2023/04/07 08:39:16;;;;;;;12.90;10.87;;;10.10;48.50;;;;;;5052904;28;20456;-60
2023/04/07 08:41:44;;;;;;;12.03;10.10;;;10.00;48.10;;;;;;5052932;28;20456;-61
2023/04/07 08:44:12;;;;;;;10.48;9.40;;;10.10;48.00;;;;;;5052533;28;20475;-60
2023/04/07 08:46:41;;;;;;;10.73;9.57;;;10.20;47.70;;;;;;5052717;28;20579;-62
2023/04/07 08:49:10;;;;;;;10.27;9.27;;;10.20;47.20;;;;;;5052639;28;20448;-62
2023/04/07 08:51:38;;;;;;;10.70;9.60;;;10.20;46.80;;;;;;5052482;28;20487;-62
2023/04/07 08:54:10;;;;;;;16.50;12.07;;;10.20;46.80;;;;;;5052760;28;20504;-62
2023/04/07 08:56:39;;;;;;;10.67;9.67;;;10.30;46.80;;;;;;5053614;28;20428;-61
2023/04/07 08:59:07;;;;;;;12.53;10.73;;;10.40;46.30;;;;;;5056271;28;20448;-62
2023/04/07 09:01:35;;;;;;;11.20;9.97;;;10.50;46.30;;;;;;5056144;28;20444;-62
2023/04/07 09:04:04;;;;;;;11.67;10.43;;;10.60;46.10;;;;;;5055640;28;20472;-62
2023/04/07 09:06:31;;;;;;;9.93;9.00;;;10.70;46.10;;;;;;5056163;28;20531;-61
2023/04/07 09:08:58;;;;;;;10.90;8.47;;;10.80;46.50;;;;;;5055853;28;20449;-62
2023/04/07 09:11:26;;;;;;;9.73;8.73;;;10.90;45.70;;;;;;5056027;28;20511;-61
2023/04/07 09:13:53;;;;;;;10.20;8.80;;;11.00;45.60;;;;;;5056936;28;20460;-62
2023/04/07 09:16:20;;;;;;;10.70;9.70;;;11.10;45.60;;;;;;5057478;28;20452;-62
2023/04/07 09:18:47;;;;;;;9.87;8.80;;;11.30;45.60;;;;;;5057622;28;20447;-61
2023/04/07 09:21:15;;;;;;;10.07;9.07;;;11.40;45.20;;;;;;5057776;28;20439;-62
2023/04/07 09:23:43;;;;;;;9.47;8.40;;;11.50;44.40;;;;;;5056879;28;20482;-63
2023/04/07 09:26:21;;;;;;;9.90;8.90;;;11.50;43.80;;;;;;5056555;28;20448;-62
2023/04/07 09:28:52;;;;;;;9.53;8.67;;;11.50;43.40;;;;;;5056115;28;20436;-62
2023/04/07 09:31:20;;;;;;;9.23;8.30;;;11.60;42.80;;;;;;5056629;28;20514;-63
2023/04/07 09:33:47;;;;;;;9.97;7.97;;;11.60;42.20;;;;;;5057806;28;21014;-61
2023/04/07 09:36:15;;;;;;;9.10;8.30;;;11.60;41.80;;;;;;5059089;28;20498;-63
2023/04/07 09:38:45;;;;;;;9.43;8.43;;;11.70;41.60;;;;;;5056764;28;20444;-62
2023/04/07 09:41:14;;;;;;;10.40;7.77;;;11.80;41.30;;;;;;5055924;28;20436;-62
2023/04/07 09:43:43;;;;;;;10.10;8.10;;;11.80;41.00;;;;;;5055679;28;20468;-62
2023/04/07 09:46:13;;;;;;;9.60;8.37;;;11.70;40.90;;;;;;5055976;28;20449;-63
2023/04/07 09:48:40;;;;;;;9.47;8.20;;;11.70;40.50;;;;;;5055350;28;20452;-63
2023/04/07 09:51:11;;;;;;;10.47;8.20;;;11.80;40.90;;;;;;5055744;28;20444;-63
2023/04/07 09:53:47;;;;;;;9.83;8.83;;;11.80;40.20;;;;;;5056519;28;20468;-63
2023/04/07 09:56:16;;;;;;;8.63;7.40;;;11.90;40.00;;;;;;5055577;28;20989;-62
2023/04/07 09:58:46;;;;;;;11.03;9.00;;;11.90;39.70;;;;;;5055209;28;20805;-63
2023/04/07 10:01:15;;;;;;;8.83;8.03;;;12.00;39.10;;;;;;5056322;28;20449;-64
2023/04/07 10:03:42;;;;;;;8.40;7.60;;;12.00;39.20;;;;;;5056015;28;20470;-63
2023/04/07 10:06:09;;;;;;;9.40;7.80;;;12.20;39.40;;;;;;5056917;28;20514;-62
2023/04/07 10:08:38;;;;;;;10.43;8.23;;;12.30;39.30;;;;;;5056545;28;20482;-64
2023/04/07 10:11:06;;;;;;;11.20;8.10;;;12.40;38.90;;;;;;5056486;28;20543;-62
2023/04/07 10:13:35;;;;;;;8.90;8.00;;;12.40;38.50;;;;;;5056597;28;20978;-63
2023/04/07 10:16:04;;;;;;;10.40;8.17;;;12.50;38.40;;;;;;5056964;28;20453;-63
2023/04/07 10:18:33;;;;;;;10.67;7.73;;;12.50;38.50;;;;;;5056917;28;20499;-62
2023/04/07 10:21:02;;;;;;;9.00;7.67;;;12.70;38.60;;;;;;5056211;28;20450;-62
2023/04/07 10:23:43;;;;;;;12.10;8.63;;;12.90;38.70;;;;;;5055526;28;20538;-63
2023/04/07 10:26:15;;;;;;;9.77;8.77;;;13.10;38.40;;;;;;5055730;28;20423;-63
2023/04/07 10:28:45;;;;;;;8.87;7.80;;;13.10;38.00;;;;;;5054590;28;20439;-63
2023/04/07 10:31:13;;;;;;;11.40;8.40;;;13.20;37.80;;;;;;5054544;28;20433;-63
2023/04/07 10:33:48;;;;;;;8.87;7.97;;;13.30;37.90;;;;;;5054103;28;20981;-63
2023/04/07 10:36:16;;;;;;;8.90;7.87;;;13.30;37.90;;;;;;5054332;28;20527;-64
2023/04/07 10:39:21;;;;;;;9.77;8.67;;;13.50;38.00;;;;;;5054632;28;20507;-62
2023/04/07 10:41:50;;;;;;;11.80;8.63;;;13.50;37.80;;;;;;5054491;28;20440;-61
2023/04/07 10:44:45;;;;;;;10.70;9.60;;;13.50;38.10;;;;;;5054246;28;20890;-62
2023/04/07 10:47:13;;;;;;;11.37;8.00;;;13.60;38.50;;;;;;5047350;28;20462;-64
2023/04/07 10:49:40;;;;;;;11.90;9.20;;;13.70;38.30;;;;;;5054215;28;20471;-63
2023/04/07 10:52:27;;;;;;;13.07;9.10;;;13.70;38.10;;;;;;5054038;28;20821;-62
2023/04/07 10:55:29;;;;;;;9.77;8.63;;;13.50;38.00;;;;;;5049753;28;20527;-62
2023/04/07 10:58:17;;;;;;;11.50;8.10;;;13.50;38.30;;;;;;5053732;28;20439;-62
2023/04/07 11:01:21;;;;;;;8.70;7.73;;;13.50;38.10;;;;;;5053549;28;20907;-62
2023/04/07 11:03:57;;;;;;;10.80;7.80;;;13.30;37.30;;;;;;5053591;28;20459;-63
2023/04/07 11:06:25;;;;;;;11.47;9.10;;;13.30;37.40;;;;;;5053584;28;20845;-62
2023/04/07 11:08:52;;;;;;;9.87;8.40;;;13.30;37.00;;;;;;5053747;28;20444;-63
2023/04/07 11:11:37;;;;;;;10.17;8.57;;;13.20;37.20;;;;;;5053793;28;20450;-63
2023/04/07 11:14:06;;;;;;;14.37;7.73;;;13.30;37.10;;;;;;5051346;28;20475;-62
2023/04/07 11:16:37;;;;;;;9.10;8.07;;;13.20;36.40;;;;;;5053963;28;20448;-63
2023/04/07 11:19:04;;;;;;;10.63;8.40;;;13.10;36.30;;;;;;5053062;28;20449;-63
2023/04/07 11:21:31;;;;;;;11.60;9.17;;;13.10;36.60;;;;;;5053260;28;20444;-63
2023/04/07 11:23:58;;;;;;;11.03;8.67;;;13.10;36.70;;;;;;5052945;28;20559;-61
2023/04/07 11:26:26;;;;;;;9.60;8.60;;;13.20;36.80;;;;;;5053408;28;20448;-62
2023/04/07 11:28:58;;;;;;;9.40;8.37;;;13.20;36.80;;;;;;5053362;28;20448;-62
2023/04/07 11:31:28;;;;;;;13.43;8.20;;;13.30;36.60;;;;;;5053258;28;20494;-63
2023/04/07 11:33:57;;;;;;;10.10;8.23;;;13.40;36.50;;;;;;5053367;28;20464;-63
2023/04/07 11:36:28;;;;;;;10.30;8.40;;;13.50;36.20;;;;;;5053315;28;20865;-61
2023/04/07 11:38:56;;;;;;;8.50;7.40;;;13.50;36.00;;;;;;5053445;28;20444;-62
2023/04/07 11:41:24;;;;;;;9.17;8.03;;;13.60;35.90;;;;;;5053652;28;20460;-63
2023/04/07 11:44:04;;;;;;;10.10;8.80;;;13.70;35.80;;;;;;5053336;28;20474;-64
2023/04/07 11:46:33;;;;;;;11.20;7.90;;;13.80;35.70;;;;;;5053057;28;20432;-63
2023/04/07 11:49:10;;;;;;;10.30;8.27;;;13.80;35.50;;;;;;5053306;28;20637;-62
2023/04/07 11:51:37;;;;;;;11.23;8.17;;;13.80;35.40;;;;;;5053397;28;20488;-62
2023/04/07 11:54:04;;;;;;;9.43;8.20;;;13.80;34.90;;;;;;5053270;28;20468;-62
2023/04/07 11:56:41;;;;;;;12.57;9.10;;;13.80;35.50;;;;;;5053284;28;20501;-62
2023/04/07 11:59:07;;;;;;;9.13;8.17;;;13.80;35.00;;;;;;5053209;28;20438;-63
2023/04/07 12:01:42;;;;;;;10.73;9.40;;;13.70;35.00;;;;;;5055036;28;20822;-62
2023/04/07 12:04:13;;;;;;;9.03;7.53;;;13.70;35.00;;;;;;5054465;28;20467;-62
2023/04/07 12:06:41;;;;;;;9.77;7.70;;;13.80;35.30;;;;;;5053433;28;20941;-62
2023/04/07 12:09:09;;;;;;;9.43;8.43;;;13.90;35.30;;;;;;5054759;28;20451;-63
2023/04/07 12:11:36;;;;;;;10.77;8.67;;;14.00;35.50;;;;;;5054398;28;20478;-63
2023/04/07 12:14:05;;;;;;;10.10;8.90;;;14.00;35.60;;;;;;5053507;28;20478;-62
2023/04/07 12:16:32;;;;;;;9.73;8.77;;;14.00;35.70;;;;;;5052885;28;20901;-62
2023/04/07 12:19:01;;;;;;;12.13;9.80;;;14.00;35.80;;;;;;5053400;28;20474;-62
2023/04/07 12:21:28;;;;;;;11.63;7.73;;;14.00;35.80;;;;;;5052976;28;20451;-63
2023/04/07 12:23:54;;;;;;;11.30;9.40;;;14.00;36.40;;;;;;5052477;28;20483;-61
2023/04/07 12:26:21;;;;;;;9.70;7.57;;;14.00;35.50;;;;;;5052844;28;20444;-63
2023/04/07 12:28:48;;;;;;;10.60;8.83;;;13.90;35.20;;;;;;5052839;28;20454;-62
2023/04/07 12:31:15;;;;;;;12.40;8.37;;;13.90;35.30;;;;;;5053031;28;20913;-63
2023/04/07 12:33:42;;;;;;;12.23;8.77;;;13.90;35.10;;;;;;5056888;28;20495;-63
2023/04/07 12:36:11;;;;;;;9.10;7.50;;;13.90;35.10;;;;;;5057805;28;20626;-62
2023/04/07 12:38:38;;;;;;;12.83;8.23;;;14.00;35.10;;;;;;5060375;28;20444;-63
2023/04/07 12:41:05;;;;;;;11.77;8.40;;;14.10;34.90;;;;;;5057659;28;20474;-64
2023/04/07 12:43:31;;;;;;;9.33;7.97;;;14.20;34.80;;;;;;5057135;28;20470;-63
2023/04/07 12:45:58;;;;;;;9.90;8.13;;;14.30;34.90;;;;;;5056647;28;20454;-63